Amarillo, TX (79101)

12:45 AM CDT on September 25, 2016 (GMT -0500)
Plemons-Eakle | | Change Station

Elev 3678 ft 35.19 °N, 101.84 °W | Updated 0 second ago

Clear
Clear
61.1 °F
Feels Like 61.1 °F
N
0.1
Wind Variable Wind from SW
Gusts 3.5 mph

Today
High -- | Low -- °F
--% Chance of Precip.
Yesterday
High -- | Low -- °F
Precip. -- in
Pressure 29.93 in
Visibility 10.0 miles
Clouds Clear
Dew Point 54 °F
Humidity 77%
Rainfall 0.00 in
Snow Depth Not available.
7:38 AM 7:39 PM
Waning Crescent, 31% visible
METAR KAMA 250453Z 15010KT 10SM CLR 16/13 A3004 RMK AO2 SLP133 T01610128
Pressure 29.93 in
Visibility 10.0 miles
Clouds Clear
Dew Point 54 °F
Humidity 77%
Rainfall 0.00 in
Snow Depth Not available.
7:38 AM 7:39 PM
Waning Crescent, 31% visible
METAR KAMA 250453Z 15010KT 10SM CLR 16/13 A3004 RMK AO2 SLP133 T01610128

10-Day Weather Forecast

Almanac

Astronomy

Sep. 25, 2016 Rise Set
Actual Time
Civil Twilight
Nautical Twilight
Astronomical Twilight
Moon
Length of Visible Light
Length of Day
Tomorrow will be .
, % of the Moon is Illuminated

Today's Extremes

State Highs State Lows

Community

WunderPhotos

Upload Photos

1,941,554 photos uploaded!

WunderBlog® & News

Nearby

Air Quality

  Air Quality AQ Index Pollutant
Not available.

Snow Depth

Station Depth Elevation

Earthquake Activity

City Distance Mag. Time & Date
Minimum magnitude displayed is 2.5.

Coastal Water Temperatures

Place Temperature

Stations

Nearby Weather Stations

Station Location Temp. Windchill Dew Point Humidity Wind Precip. Elev Updated Type
                   

Watches & Warnings

There are currently no watches in effect.